createdAt,value
2023-03-19T00:03:31.573Z,3.5
2023-03-19T00:13:32.407Z,2.9
2023-03-19T00:23:33.265Z,4
2023-03-19T00:33:34.067Z,3.5
2023-03-19T00:43:36.567Z,3.4
2023-03-19T00:53:35.826Z,3.2
2023-03-19T01:03:36.735Z,3.2
2023-03-19T01:13:37.612Z,3.6
2023-03-19T01:23:38.472Z,3.1
2023-03-19T01:33:39.366Z,3.4
2023-03-19T01:43:40.173Z,4.1
2023-03-19T01:53:41.061Z,3.7
2023-03-19T02:03:41.962Z,4.2
2023-03-19T02:13:42.843Z,3.5
2023-03-19T02:23:43.638Z,4.2
2023-03-19T02:33:44.417Z,3.4
2023-03-19T02:43:45.220Z,3.5
2023-03-19T02:53:46.089Z,2.7
2023-03-19T03:03:46.951Z,3
2023-03-19T03:13:47.707Z,2.9
2023-03-19T03:23:48.648Z,3.1
2023-03-19T03:33:49.349Z,3.3
2023-03-19T03:43:50.176Z,3.6
2023-03-19T03:53:51.098Z,3.2
2023-03-19T04:03:51.950Z,3.2
2023-03-19T04:13:52.775Z,3.7
2023-03-19T04:23:53.575Z,3.1
2023-03-19T04:33:54.423Z,3.6
2023-03-19T04:43:55.291Z,2.7
2023-03-19T04:53:56.078Z,2.7
2023-03-19T05:03:56.782Z,2.3
2023-03-19T05:13:57.605Z,2
2023-03-19T05:23:58.546Z,1.7
2023-03-19T05:33:59.339Z,1.9
2023-03-19T05:44:00.196Z,1.5
2023-03-19T05:54:00.953Z,2.5
2023-03-19T06:04:02.738Z,1.9
2023-03-19T06:14:02.499Z,2
2023-03-19T06:24:03.284Z,1.5
2023-03-19T06:34:04.165Z,1.5
2023-03-19T06:44:05.044Z,1.5
2023-03-19T06:54:05.828Z,1.5
2023-03-19T07:04:06.710Z,1.4
2023-03-19T07:14:07.458Z,1.6
2023-03-19T07:24:08.289Z,1.5
2023-03-19T07:34:09.093Z,1.5
2023-03-19T07:44:09.979Z,1.6
2023-03-19T07:54:10.802Z,1.6
2023-03-19T08:04:11.772Z,1.6
2023-03-19T08:14:12.656Z,1.6
2023-03-19T08:24:13.561Z,1.8
2023-03-19T08:34:14.341Z,1.5
2023-03-19T08:44:15.207Z,1.5
2023-03-19T08:54:16.051Z,1.5
2023-03-19T09:04:16.970Z,1.4
2023-03-19T09:14:17.722Z,1.3
2023-03-19T09:24:18.584Z,1.5
2023-03-19T09:34:19.346Z,1.1
2023-03-19T09:44:20.109Z,1.2
2023-03-19T09:54:20.951Z,1.2
2023-03-19T10:04:21.837Z,1.4
2023-03-19T10:14:22.525Z,1.5
2023-03-19T10:24:23.299Z,1.5
2023-03-19T10:34:24.061Z,1.5
2023-03-19T10:44:24.754Z,1.2
2023-03-19T10:54:25.496Z,1.6
2023-03-19T11:04:26.296Z,1.3
2023-03-19T11:14:27.079Z,1.4
2023-03-19T11:24:27.849Z,1.4
2023-03-19T11:34:28.716Z,1.5
2023-03-19T11:44:29.510Z,1.4
2023-03-19T11:54:30.165Z,1.6
2023-03-19T12:04:30.859Z,1.4
2023-03-19T12:14:31.503Z,1.4
2023-03-19T12:24:32.175Z,1.6
2023-03-19T12:34:32.809Z,1.9
2023-03-19T12:44:33.532Z,1.7
2023-03-19T12:54:34.213Z,1.9
2023-03-19T13:04:34.933Z,1.8
2023-03-19T13:14:35.661Z,1.9
2023-03-19T13:24:37.535Z,1.8
2023-03-19T13:34:37.212Z,1.9
2023-03-19T13:44:37.921Z,2.2
2023-03-19T13:54:38.717Z,1.9
2023-03-19T14:04:39.418Z,2
2023-03-19T14:14:40.204Z,1.9
2023-03-19T14:24:56.975Z,1.7
2023-03-19T14:34:41.771Z,1.9
2023-03-19T14:44:42.628Z,1.8
2023-03-19T14:54:43.467Z,1.7
2023-03-19T15:04:45.453Z,1.8
2023-03-19T15:14:44.845Z,1.9
2023-03-19T15:19:20.049Z,1.9
2023-03-19T15:24:45.538Z,1.5
2023-03-19T15:34:46.398Z,1.8
2023-03-19T15:44:47.000Z,1.8
2023-03-19T15:54:47.726Z,1.8
2023-03-19T16:05:14.344Z,1.5
2023-03-19T16:14:49.249Z,2.2
2023-03-19T16:24:50.103Z,2
2023-03-19T16:34:50.867Z,2.2
2023-03-19T16:44:51.762Z,1.9
2023-03-19T16:54:52.451Z,2.4
2023-03-19T17:04:53.475Z,2
2023-03-19T17:14:54.239Z,2
2023-03-19T17:24:54.996Z,2.2
2023-03-19T17:34:55.870Z,2.1
2023-03-19T17:44:56.716Z,2.1
2023-03-19T17:54:57.625Z,2
2023-03-19T18:04:58.574Z,2
2023-03-19T18:14:59.423Z,2.6
2023-03-19T18:25:00.294Z,2
2023-03-19T18:35:01.121Z,2.1
2023-03-19T18:45:02.029Z,2.2
2023-03-19T18:55:02.902Z,2.3
2023-03-19T19:05:03.725Z,1.9
2023-03-19T19:15:04.694Z,1.7
2023-03-19T19:25:05.608Z,2
2023-03-19T19:35:06.609Z,1.7
2023-03-19T19:45:07.504Z,1.5
2023-03-19T19:55:08.481Z,1.9
2023-03-19T20:05:09.353Z,1.7
2023-03-19T20:15:10.283Z,1.7
2023-03-19T20:25:11.207Z,1.6
2023-03-19T20:35:12.044Z,1.9
2023-03-19T20:45:14.440Z,1.6
2023-03-19T20:55:13.907Z,1.5
2023-03-19T21:05:14.825Z,2
2023-03-19T21:15:15.874Z,1.7
2023-03-19T21:25:16.745Z,1.3
2023-03-19T21:35:17.639Z,1.6
2023-03-19T21:45:18.500Z,1.5
2023-03-19T21:55:19.377Z,1.3
2023-03-19T22:05:20.240Z,1.3
2023-03-19T22:15:21.075Z,1.5
2023-03-19T22:25:21.924Z,1.4
2023-03-19T22:35:22.739Z,2
2023-03-19T22:45:23.723Z,1.2
2023-03-19T22:55:25.442Z,1.5
2023-03-19T23:05:25.194Z,1.5
2023-03-19T23:15:26.006Z,1.2
2023-03-19T23:25:26.764Z,0.9
2023-03-19T23:35:27.555Z,1.1
2023-03-19T23:45:28.326Z,1.1
2023-03-19T23:55:29.163Z,1
